sensor_id;sensor_type;location;lat;lon;timestamp;P1;durP1;ratioP1;P2;durP2;ratioP2
11228;SDS011;5671;47.936;8.716;2023-12-20T00:02:20;1.30;;;1.20;;
11228;SDS011;5671;47.936;8.716;2023-12-20T00:05:10;1.10;;;0.93;;
11228;SDS011;5671;47.936;8.716;2023-12-20T00:12:06;1.10;;;1.00;;
11228;SDS011;5671;47.936;8.716;2023-12-20T00:14:58;1.30;;;1.23;;
11228;SDS011;5671;47.936;8.716;2023-12-20T00:17:37;1.13;;;1.10;;
11228;SDS011;5671;47.936;8.716;2023-12-20T00:20:16;0.73;;;0.70;;
11228;SDS011;5671;47.936;8.716;2023-12-20T00:22:58;1.00;;;1.00;;
11228;SDS011;5671;47.936;8.716;2023-12-20T00:25:25;1.23;;;1.13;;
11228;SDS011;5671;47.936;8.716;2023-12-20T00:28:01;1.00;;;1.00;;
11228;SDS011;5671;47.936;8.716;2023-12-20T00:30:44;1.00;;;1.00;;
11228;SDS011;5671;47.936;8.716;2023-12-20T00:37:33;1.10;;;1.10;;
11228;SDS011;5671;47.936;8.716;2023-12-20T00:39:45;1.00;;;1.00;;
11228;SDS011;5671;47.936;8.716;2023-12-20T00:42:14;1.00;;;1.00;;
11228;SDS011;5671;47.936;8.716;2023-12-20T00:44:58;0.90;;;0.90;;
11228;SDS011;5671;47.936;8.716;2023-12-20T00:47:39;1.17;;;1.10;;
11228;SDS011;5671;47.936;8.716;2023-12-20T00:50:17;1.03;;;1.03;;
11228;SDS011;5671;47.936;8.716;2023-12-20T00:52:53;0.80;;;0.80;;
11228;SDS011;5671;47.936;8.716;2023-12-20T00:55:36;0.87;;;0.80;;
11228;SDS011;5671;47.936;8.716;2023-12-20T00:58:17;1.03;;;1.00;;
11228;SDS011;5671;47.936;8.716;2023-12-20T01:00:54;0.80;;;0.80;;
11228;SDS011;5671;47.936;8.716;2023-12-20T01:03:39;1.20;;;1.10;;
11228;SDS011;5671;47.936;8.716;2023-12-20T01:06:27;0.80;;;0.80;;
11228;SDS011;5671;47.936;8.716;2023-12-20T01:12:33;0.70;;;0.70;;
11228;SDS011;5671;47.936;8.716;2023-12-20T01:15:17;0.70;;;0.70;;
11228;SDS011;5671;47.936;8.716;2023-12-20T01:18:04;0.93;;;0.93;;
11228;SDS011;5671;47.936;8.716;2023-12-20T01:20:39;0.80;;;0.70;;
11228;SDS011;5671;47.936;8.716;2023-12-20T01:23:18;0.80;;;0.80;;
11228;SDS011;5671;47.936;8.716;2023-12-20T01:25:49;1.13;;;0.90;;
11228;SDS011;5671;47.936;8.716;2023-12-20T01:28:16;0.80;;;0.80;;
11228;SDS011;5671;47.936;8.716;2023-12-20T01:30:44;0.70;;;0.70;;
11228;SDS011;5671;47.936;8.716;2023-12-20T01:33:17;0.73;;;0.73;;
11228;SDS011;5671;47.936;8.716;2023-12-20T01:35:44;0.80;;;0.80;;
11228;SDS011;5671;47.936;8.716;2023-12-20T01:38:11;0.60;;;0.60;;
11228;SDS011;5671;47.936;8.716;2023-12-20T01:40:37;0.90;;;0.90;;
11228;SDS011;5671;47.936;8.716;2023-12-20T01:43:06;0.70;;;0.70;;
11228;SDS011;5671;47.936;8.716;2023-12-20T01:45:34;1.10;;;0.77;;
11228;SDS011;5671;47.936;8.716;2023-12-20T01:48:04;1.10;;;1.00;;
11228;SDS011;5671;47.936;8.716;2023-12-20T01:50:34;1.07;;;0.73;;
11228;SDS011;5671;47.936;8.716;2023-12-20T01:53:02;1.30;;;0.70;;
11228;SDS011;5671;47.936;8.716;2023-12-20T01:55:33;0.60;;;0.60;;
11228;SDS011;5671;47.936;8.716;2023-12-20T01:58:05;0.60;;;0.60;;
11228;SDS011;5671;47.936;8.716;2023-12-20T02:00:33;0.70;;;0.70;;
11228;SDS011;5671;47.936;8.716;2023-12-20T02:03:02;0.57;;;0.57;;
11228;SDS011;5671;47.936;8.716;2023-12-20T02:05:30;0.80;;;0.50;;
11228;SDS011;5671;47.936;8.716;2023-12-20T02:07:58;0.67;;;0.67;;
11228;SDS011;5671;47.936;8.716;2023-12-20T02:10:25;0.50;;;0.50;;
11228;SDS011;5671;47.936;8.716;2023-12-20T02:12:54;0.60;;;0.60;;
11228;SDS011;5671;47.936;8.716;2023-12-20T02:15:21;0.70;;;0.70;;
11228;SDS011;5671;47.936;8.716;2023-12-20T02:17:48;0.60;;;0.60;;
11228;SDS011;5671;47.936;8.716;2023-12-20T02:20:15;0.93;;;0.60;;
11228;SDS011;5671;47.936;8.716;2023-12-20T02:22:44;0.60;;;0.60;;
11228;SDS011;5671;47.936;8.716;2023-12-20T02:25:11;0.50;;;0.50;;
11228;SDS011;5671;47.936;8.716;2023-12-20T02:27:38;1.03;;;0.60;;
11228;SDS011;5671;47.936;8.716;2023-12-20T02:30:06;0.40;;;0.40;;
11228;SDS011;5671;47.936;8.716;2023-12-20T02:32:33;1.13;;;0.50;;
11228;SDS011;5671;47.936;8.716;2023-12-20T02:35:00;0.60;;;0.60;;
11228;SDS011;5671;47.936;8.716;2023-12-20T02:37:26;0.80;;;0.70;;
11228;SDS011;5671;47.936;8.716;2023-12-20T02:39:55;0.50;;;0.50;;
11228;SDS011;5671;47.936;8.716;2023-12-20T02:42:22;0.73;;;0.60;;
11228;SDS011;5671;47.936;8.716;2023-12-20T02:44:48;0.77;;;0.70;;
11228;SDS011;5671;47.936;8.716;2023-12-20T02:47:15;0.83;;;0.60;;
11228;SDS011;5671;47.936;8.716;2023-12-20T02:49:42;0.30;;;0.30;;
11228;SDS011;5671;47.936;8.716;2023-12-20T02:52:09;0.43;;;0.40;;
11228;SDS011;5671;47.936;8.716;2023-12-20T02:54:36;0.60;;;0.60;;
11228;SDS011;5671;47.936;8.716;2023-12-20T02:57:04;0.57;;;0.37;;
11228;SDS011;5671;47.936;8.716;2023-12-20T02:59:31;0.30;;;0.30;;
11228;SDS011;5671;47.936;8.716;2023-12-20T03:01:58;0.77;;;0.57;;
11228;SDS011;5671;47.936;8.716;2023-12-20T03:04:25;2.23;;;0.90;;
11228;SDS011;5671;47.936;8.716;2023-12-20T03:06:52;1.00;;;0.57;;
11228;SDS011;5671;47.936;8.716;2023-12-20T03:09:19;1.97;;;1.10;;
11228;SDS011;5671;47.936;8.716;2023-12-20T03:11:46;4.00;;;0.50;;
11228;SDS011;5671;47.936;8.716;2023-12-20T03:14:14;0.30;;;0.20;;
11228;SDS011;5671;47.936;8.716;2023-12-20T03:16:41;0.40;;;0.10;;
11228;SDS011;5671;47.936;8.716;2023-12-20T03:19:12;0.80;;;0.80;;
11228;SDS011;5671;47.936;8.716;2023-12-20T03:21:42;0.73;;;0.70;;
11228;SDS011;5671;47.936;8.716;2023-12-20T03:24:20;1.80;;;0.40;;
11228;SDS011;5671;47.936;8.716;2023-12-20T03:27:08;0.10;;;0.10;;
11228;SDS011;5671;47.936;8.716;2023-12-20T03:29:57;0.67;;;0.10;;
11228;SDS011;5671;47.936;8.716;2023-12-20T03:32:30;0.13;;;0.10;;
11228;SDS011;5671;47.936;8.716;2023-12-20T03:35:18;0.00;;;0.00;;
11228;SDS011;5671;47.936;8.716;2023-12-20T03:37:55;0.27;;;0.10;;
11228;SDS011;5671;47.936;8.716;2023-12-20T03:40:36;0.10;;;0.10;;
11228;SDS011;5671;47.936;8.716;2023-12-20T03:43:22;0.07;;;0.07;;
11228;SDS011;5671;47.936;8.716;2023-12-20T03:46:07;0.10;;;0.10;;
11228;SDS011;5671;47.936;8.716;2023-12-20T03:48:43;0.20;;;0.20;;
11228;SDS011;5671;47.936;8.716;2023-12-20T03:51:21;0.13;;;0.10;;
11228;SDS011;5671;47.936;8.716;2023-12-20T03:53:54;0.17;;;0.17;;
11228;SDS011;5671;47.936;8.716;2023-12-20T03:56:25;0.40;;;0.30;;
11228;SDS011;5671;47.936;8.716;2023-12-20T03:59:01;0.00;;;0.00;;
11228;SDS011;5671;47.936;8.716;2023-12-20T04:01:39;0.17;;;0.10;;
11228;SDS011;5671;47.936;8.716;2023-12-20T04:04:15;0.20;;;0.20;;
11228;SDS011;5671;47.936;8.716;2023-12-20T04:07:00;0.20;;;0.20;;
11228;SDS011;5671;47.936;8.716;2023-12-20T04:09:37;0.20;;;0.13;;
11228;SDS011;5671;47.936;8.716;2023-12-20T04:12:12;0.57;;;0.30;;
11228;SDS011;5671;47.936;8.716;2023-12-20T04:15:07;0.50;;;0.50;;
11228;SDS011;5671;47.936;8.716;2023-12-20T04:17:49;0.20;;;0.20;;
11228;SDS011;5671;47.936;8.716;2023-12-20T04:20:26;0.10;;;0.10;;
11228;SDS011;5671;47.936;8.716;2023-12-20T04:22:58;0.60;;;0.20;;
11228;SDS011;5671;47.936;8.716;2023-12-20T04:25:40;0.20;;;0.17;;
11228;SDS011;5671;47.936;8.716;2023-12-20T04:28:11;1.83;;;0.30;;
11228;SDS011;5671;47.936;8.716;2023-12-20T04:30:40;0.00;;;0.00;;
11228;SDS011;5671;47.936;8.716;2023-12-20T04:33:17;1.50;;;0.13;;
11228;SDS011;5671;47.936;8.716;2023-12-20T04:36:09;0.30;;;0.20;;
11228;SDS011;5671;47.936;8.716;2023-12-20T04:38:53;0.10;;;0.10;;
11228;SDS011;5671;47.936;8.716;2023-12-20T04:41:25;1.13;;;0.20;;
11228;SDS011;5671;47.936;8.716;2023-12-20T04:44:18;0.20;;;0.20;;
11228;SDS011;5671;47.936;8.716;2023-12-20T04:47:14;0.77;;;0.30;;
11228;SDS011;5671;47.936;8.716;2023-12-20T04:50:10;0.93;;;0.27;;
11228;SDS011;5671;47.936;8.716;2023-12-20T04:53:07;0.40;;;0.40;;
11228;SDS011;5671;47.936;8.716;2023-12-20T04:56:12;0.17;;;0.17;;
11228;SDS011;5671;47.936;8.716;2023-12-20T04:59:14;0.60;;;0.23;;
11228;SDS011;5671;47.936;8.716;2023-12-20T05:02:03;0.20;;;0.20;;
11228;SDS011;5671;47.936;8.716;2023-12-20T05:04:39;0.47;;;0.30;;
11228;SDS011;5671;47.936;8.716;2023-12-20T05:07:25;0.60;;;0.30;;
11228;SDS011;5671;47.936;8.716;2023-12-20T05:10:30;0.20;;;0.20;;
11228;SDS011;5671;47.936;8.716;2023-12-20T05:13:29;0.10;;;0.10;;
11228;SDS011;5671;47.936;8.716;2023-12-20T05:16:10;0.20;;;0.20;;
11228;SDS011;5671;47.936;8.716;2023-12-20T05:18:51;0.50;;;0.20;;
11228;SDS011;5671;47.936;8.716;2023-12-20T05:21:18;1.03;;;0.20;;
11228;SDS011;5671;47.936;8.716;2023-12-20T05:23:46;0.20;;;0.20;;
11228;SDS011;5671;47.936;8.716;2023-12-20T05:26:13;0.40;;;0.23;;
11228;SDS011;5671;47.936;8.716;2023-12-20T05:28:40;0.10;;;0.10;;
11228;SDS011;5671;47.936;8.716;2023-12-20T05:31:09;0.17;;;0.17;;
11228;SDS011;5671;47.936;8.716;2023-12-20T05:33:58;0.50;;;0.30;;
11228;SDS011;5671;47.936;8.716;2023-12-20T05:36:25;0.30;;;0.30;;
11228;SDS011;5671;47.936;8.716;2023-12-20T05:38:54;0.97;;;0.53;;
11228;SDS011;5671;47.936;8.716;2023-12-20T05:41:21;0.57;;;0.43;;
11228;SDS011;5671;47.936;8.716;2023-12-20T05:43:48;0.60;;;0.60;;
11228;SDS011;5671;47.936;8.716;2023-12-20T05:46:15;2.03;;;0.90;;
11228;SDS011;5671;47.936;8.716;2023-12-20T05:48:45;0.73;;;0.70;;
11228;SDS011;5671;47.936;8.716;2023-12-20T05:51:21;1.87;;;0.87;;
11228;SDS011;5671;47.936;8.716;2023-12-20T06:00:08;0.80;;;0.80;;
11228;SDS011;5671;47.936;8.716;2023-12-20T06:02:42;1.07;;;1.00;;
11228;SDS011;5671;47.936;8.716;2023-12-20T06:05:09;0.60;;;0.60;;
11228;SDS011;5671;47.936;8.716;2023-12-20T06:07:36;1.40;;;1.20;;
11228;SDS011;5671;47.936;8.716;2023-12-20T06:10:05;1.17;;;1.07;;
11228;SDS011;5671;47.936;8.716;2023-12-20T06:12:32;1.40;;;1.30;;
11228;SDS011;5671;47.936;8.716;2023-12-20T06:15:02;1.20;;;1.10;;
11228;SDS011;5671;47.936;8.716;2023-12-20T06:17:30;1.57;;;1.37;;
11228;SDS011;5671;47.936;8.716;2023-12-20T06:19:57;1.40;;;1.30;;
11228;SDS011;5671;47.936;8.716;2023-12-20T06:22:24;1.70;;;1.60;;
11228;SDS011;5671;47.936;8.716;2023-12-20T06:24:51;1.60;;;1.50;;
11228;SDS011;5671;47.936;8.716;2023-12-20T06:27:20;1.73;;;1.63;;
11228;SDS011;5671;47.936;8.716;2023-12-20T06:29:47;1.50;;;1.40;;
11228;SDS011;5671;47.936;8.716;2023-12-20T06:32:13;1.67;;;1.57;;
11228;SDS011;5671;47.936;8.716;2023-12-20T06:34:40;1.33;;;1.23;;
11228;SDS011;5671;47.936;8.716;2023-12-20T06:37:07;1.57;;;1.50;;
11228;SDS011;5671;47.936;8.716;2023-12-20T06:39:34;2.23;;;1.83;;
11228;SDS011;5671;47.936;8.716;2023-12-20T06:42:01;1.60;;;1.50;;
11228;SDS011;5671;47.936;8.716;2023-12-20T06:44:30;2.03;;;1.93;;
11228;SDS011;5671;47.936;8.716;2023-12-20T06:46:57;2.70;;;1.80;;
11228;SDS011;5671;47.936;8.716;2023-12-20T06:49:24;1.90;;;1.80;;
11228;SDS011;5671;47.936;8.716;2023-12-20T06:51:51;2.50;;;1.80;;
11228;SDS011;5671;47.936;8.716;2023-12-20T06:54:18;2.60;;;1.80;;
11228;SDS011;5671;47.936;8.716;2023-12-20T06:56:45;1.83;;;1.73;;
11228;SDS011;5671;47.936;8.716;2023-12-20T06:59:11;7.17;;;3.43;;
11228;SDS011;5671;47.936;8.716;2023-12-20T07:01:40;3.80;;;2.40;;
11228;SDS011;5671;47.936;8.716;2023-12-20T07:04:07;4.40;;;2.37;;
11228;SDS011;5671;47.936;8.716;2023-12-20T07:06:34;1.90;;;1.67;;
11228;SDS011;5671;47.936;8.716;2023-12-20T07:09:01;9.67;;;8.67;;
11228;SDS011;5671;47.936;8.716;2023-12-20T07:11:28;4.37;;;1.80;;
11228;SDS011;5671;47.936;8.716;2023-12-20T07:13:55;1.67;;;1.57;;
11228;SDS011;5671;47.936;8.716;2023-12-20T07:16:21;3.67;;;2.40;;
11228;SDS011;5671;47.936;8.716;2023-12-20T07:18:51;2.20;;;2.00;;
11228;SDS011;5671;47.936;8.716;2023-12-20T07:21:18;6.73;;;4.93;;
11228;SDS011;5671;47.936;8.716;2023-12-20T07:23:45;20.00;;;17.20;;
11228;SDS011;5671;47.936;8.716;2023-12-20T07:26:12;5.90;;;5.00;;
11228;SDS011;5671;47.936;8.716;2023-12-20T07:28:38;3.00;;;2.70;;
11228;SDS011;5671;47.936;8.716;2023-12-20T07:31:05;1.63;;;1.53;;
11228;SDS011;5671;47.936;8.716;2023-12-20T07:33:32;1.03;;;1.03;;
11228;SDS011;5671;47.936;8.716;2023-12-20T07:36:00;0.73;;;0.73;;
11228;SDS011;5671;47.936;8.716;2023-12-20T07:38:27;0.50;;;0.50;;
11228;SDS011;5671;47.936;8.716;2023-12-20T07:40:54;0.60;;;0.40;;
11228;SDS011;5671;47.936;8.716;2023-12-20T07:43:21;0.73;;;0.23;;
11228;SDS011;5671;47.936;8.716;2023-12-20T07:45:48;0.60;;;0.60;;
11228;SDS011;5671;47.936;8.716;2023-12-20T07:48:14;1.07;;;1.07;;
11228;SDS011;5671;47.936;8.716;2023-12-20T07:50:41;0.80;;;0.80;;
11228;SDS011;5671;47.936;8.716;2023-12-20T07:53:10;1.30;;;1.20;;
11228;SDS011;5671;47.936;8.716;2023-12-20T07:55:37;2.37;;;2.17;;
11228;SDS011;5671;47.936;8.716;2023-12-20T07:58:03;19.07;;;17.27;;
11228;SDS011;5671;47.936;8.716;2023-12-20T08:00:31;16.60;;;15.20;;
11228;SDS011;5671;47.936;8.716;2023-12-20T08:02:58;15.43;;;13.83;;
11228;SDS011;5671;47.936;8.716;2023-12-20T08:05:24;5.83;;;4.37;;
11228;SDS011;5671;47.936;8.716;2023-12-20T08:07:51;13.50;;;12.10;;
11228;SDS011;5671;47.936;8.716;2023-12-20T08:10:20;18.50;;;16.57;;
11228;SDS011;5671;47.936;8.716;2023-12-20T08:12:47;9.23;;;7.40;;
11228;SDS011;5671;47.936;8.716;2023-12-20T08:15:13;12.50;;;10.60;;
11228;SDS011;5671;47.936;8.716;2023-12-20T08:17:40;11.20;;;10.07;;
11228;SDS011;5671;47.936;8.716;2023-12-20T08:20:07;10.13;;;8.07;;
11228;SDS011;5671;47.936;8.716;2023-12-20T08:22:34;5.10;;;4.60;;
11228;SDS011;5671;47.936;8.716;2023-12-20T08:25:01;6.40;;;5.43;;
11228;SDS011;5671;47.936;8.716;2023-12-20T08:27:29;5.40;;;2.83;;
11228;SDS011;5671;47.936;8.716;2023-12-20T08:29:57;1.70;;;1.60;;
11228;SDS011;5671;47.936;8.716;2023-12-20T08:32:24;8.70;;;6.53;;
11228;SDS011;5671;47.936;8.716;2023-12-20T08:34:52;3.80;;;2.30;;
11228;SDS011;5671;47.936;8.716;2023-12-20T08:37:19;2.40;;;2.10;;
11228;SDS011;5671;47.936;8.716;2023-12-20T08:39:45;4.73;;;3.13;;
11228;SDS011;5671;47.936;8.716;2023-12-20T08:42:12;6.70;;;5.50;;
11228;SDS011;5671;47.936;8.716;2023-12-20T08:44:40;5.77;;;2.83;;
11228;SDS011;5671;47.936;8.716;2023-12-20T08:47:07;2.80;;;2.50;;
11228;SDS011;5671;47.936;8.716;2023-12-20T08:49:38;1.70;;;1.60;;
11228;SDS011;5671;47.936;8.716;2023-12-20T08:52:05;1.60;;;1.50;;
11228;SDS011;5671;47.936;8.716;2023-12-20T08:54:32;1.80;;;1.70;;
11228;SDS011;5671;47.936;8.716;2023-12-20T08:56:59;3.63;;;3.27;;
11228;SDS011;5671;47.936;8.716;2023-12-20T08:59:25;7.23;;;6.00;;
11228;SDS011;5671;47.936;8.716;2023-12-20T09:01:53;4.60;;;2.63;;
11228;SDS011;5671;47.936;8.716;2023-12-20T09:04:21;2.57;;;2.23;;
11228;SDS011;5671;47.936;8.716;2023-12-20T09:06:48;2.30;;;1.90;;
11228;SDS011;5671;47.936;8.716;2023-12-20T09:09:14;2.90;;;2.70;;
11228;SDS011;5671;47.936;8.716;2023-12-20T09:11:41;1.33;;;1.17;;
11228;SDS011;5671;47.936;8.716;2023-12-20T09:14:11;1.27;;;1.27;;
11228;SDS011;5671;47.936;8.716;2023-12-20T09:16:38;2.03;;;1.50;;
11228;SDS011;5671;47.936;8.716;2023-12-20T09:19:06;2.20;;;1.90;;
11228;SDS011;5671;47.936;8.716;2023-12-20T09:21:33;2.33;;;1.10;;
11228;SDS011;5671;47.936;8.716;2023-12-20T09:23:59;1.43;;;1.33;;
11228;SDS011;5671;47.936;8.716;2023-12-20T09:26:26;1.40;;;1.30;;
11228;SDS011;5671;47.936;8.716;2023-12-20T09:28:53;1.30;;;1.27;;
11228;SDS011;5671;47.936;8.716;2023-12-20T09:31:20;1.50;;;1.40;;
11228;SDS011;5671;47.936;8.716;2023-12-20T09:33:47;1.00;;;1.00;;
11228;SDS011;5671;47.936;8.716;2023-12-20T09:36:15;0.60;;;0.60;;
11228;SDS011;5671;47.936;8.716;2023-12-20T09:38:42;12.60;;;7.90;;
11228;SDS011;5671;47.936;8.716;2023-12-20T09:41:09;1.90;;;1.70;;
11228;SDS011;5671;47.936;8.716;2023-12-20T09:43:37;1.17;;;1.07;;
11228;SDS011;5671;47.936;8.716;2023-12-20T09:46:05;0.77;;;0.77;;
11228;SDS011;5671;47.936;8.716;2023-12-20T09:48:33;1.00;;;1.00;;
11228;SDS011;5671;47.936;8.716;2023-12-20T09:51:00;0.70;;;0.70;;
11228;SDS011;5671;47.936;8.716;2023-12-20T09:53:28;0.90;;;0.90;;
11228;SDS011;5671;47.936;8.716;2023-12-20T09:55:57;2.00;;;1.90;;
11228;SDS011;5671;47.936;8.716;2023-12-20T09:58:25;2.37;;;2.17;;
11228;SDS011;5671;47.936;8.716;2023-12-20T10:00:52;2.47;;;2.27;;
11228;SDS011;5671;47.936;8.716;2023-12-20T10:03:21;1.07;;;0.97;;
11228;SDS011;5671;47.936;8.716;2023-12-20T10:05:51;1.47;;;1.37;;
11228;SDS011;5671;47.936;8.716;2023-12-20T10:08:20;1.67;;;1.57;;
11228;SDS011;5671;47.936;8.716;2023-12-20T10:10:49;3.10;;;1.87;;
11228;SDS011;5671;47.936;8.716;2023-12-20T10:13:16;4.67;;;3.53;;
11228;SDS011;5671;47.936;8.716;2023-12-20T10:15:43;0.80;;;0.80;;
11228;SDS011;5671;47.936;8.716;2023-12-20T10:18:11;1.37;;;1.27;;
11228;SDS011;5671;47.936;8.716;2023-12-20T10:20:40;0.43;;;0.43;;
11228;SDS011;5671;47.936;8.716;2023-12-20T10:23:07;0.70;;;0.70;;
11228;SDS011;5671;47.936;8.716;2023-12-20T10:25:34;0.40;;;0.40;;
11228;SDS011;5671;47.936;8.716;2023-12-20T10:28:12;0.90;;;0.90;;
11228;SDS011;5671;47.936;8.716;2023-12-20T10:30:42;4.77;;;3.37;;
11228;SDS011;5671;47.936;8.716;2023-12-20T10:33:09;70.23;;;39.90;;
11228;SDS011;5671;47.936;8.716;2023-12-20T10:35:37;34.87;;;31.17;;
11228;SDS011;5671;47.936;8.716;2023-12-20T10:38:05;4.97;;;4.32;;
11228;SDS011;5671;47.936;8.716;2023-12-20T10:40:34;3.30;;;2.20;;
11228;SDS011;5671;47.936;8.716;2023-12-20T10:43:03;1.00;;;1.00;;
11228;SDS011;5671;47.936;8.716;2023-12-20T10:45:31;0.80;;;0.80;;
11228;SDS011;5671;47.936;8.716;2023-12-20T10:47:58;1.53;;;0.70;;
11228;SDS011;5671;47.936;8.716;2023-12-20T10:50:26;0.60;;;0.60;;
11228;SDS011;5671;47.936;8.716;2023-12-20T10:52:53;0.40;;;0.40;;
11228;SDS011;5671;47.936;8.716;2023-12-20T10:55:21;0.47;;;0.47;;
11228;SDS011;5671;47.936;8.716;2023-12-20T10:57:49;1.47;;;0.80;;
11228;SDS011;5671;47.936;8.716;2023-12-20T11:00:17;0.70;;;0.60;;
11228;SDS011;5671;47.936;8.716;2023-12-20T11:02:46;0.97;;;0.63;;
11228;SDS011;5671;47.936;8.716;2023-12-20T11:05:19;1.37;;;1.27;;
11228;SDS011;5671;47.936;8.716;2023-12-20T11:07:57;0.90;;;0.90;;
11228;SDS011;5671;47.936;8.716;2023-12-20T11:10:29;1.30;;;1.20;;
11228;SDS011;5671;47.936;8.716;2023-12-20T11:12:58;2.07;;;1.67;;
11228;SDS011;5671;47.936;8.716;2023-12-20T11:15:34;1.40;;;1.27;;
11228;SDS011;5671;47.936;8.716;2023-12-20T11:18:03;1.30;;;1.20;;
11228;SDS011;5671;47.936;8.716;2023-12-20T11:20:35;1.70;;;1.50;;
11228;SDS011;5671;47.936;8.716;2023-12-20T11:23:03;2.43;;;1.60;;
11228;SDS011;5671;47.936;8.716;2023-12-20T11:25:34;1.10;;;1.00;;
11228;SDS011;5671;47.936;8.716;2023-12-20T11:28:13;0.80;;;0.80;;
11228;SDS011;5671;47.936;8.716;2023-12-20T11:30:45;1.00;;;0.83;;
11228;SDS011;5671;47.936;8.716;2023-12-20T11:33:14;0.63;;;0.63;;
11228;SDS011;5671;47.936;8.716;2023-12-20T11:35:41;3.07;;;2.53;;
11228;SDS011;5671;47.936;8.716;2023-12-20T11:38:08;1.10;;;0.70;;
11228;SDS011;5671;47.936;8.716;2023-12-20T11:40:36;1.50;;;0.53;;
11228;SDS011;5671;47.936;8.716;2023-12-20T11:43:03;0.60;;;0.60;;
11228;SDS011;5671;47.936;8.716;2023-12-20T11:45:31;0.77;;;0.77;;
11228;SDS011;5671;47.936;8.716;2023-12-20T11:47:59;0.80;;;0.80;;
11228;SDS011;5671;47.936;8.716;2023-12-20T11:50:28;0.70;;;0.70;;
11228;SDS011;5671;47.936;8.716;2023-12-20T11:52:55;0.50;;;0.50;;
11228;SDS011;5671;47.936;8.716;2023-12-20T11:55:23;0.77;;;0.77;;
11228;SDS011;5671;47.936;8.716;2023-12-20T11:57:50;0.60;;;0.60;;
11228;SDS011;5671;47.936;8.716;2023-12-20T12:00:18;0.80;;;0.80;;
11228;SDS011;5671;47.936;8.716;2023-12-20T12:02:54;1.00;;;0.90;;
11228;SDS011;5671;47.936;8.716;2023-12-20T12:05:22;0.70;;;0.70;;
11228;SDS011;5671;47.936;8.716;2023-12-20T12:07:50;1.90;;;0.80;;
11228;SDS011;5671;47.936;8.716;2023-12-20T12:10:18;0.83;;;0.60;;
11228;SDS011;5671;47.936;8.716;2023-12-20T12:12:45;0.80;;;0.80;;
11228;SDS011;5671;47.936;8.716;2023-12-20T12:15:12;0.87;;;0.73;;
11228;SDS011;5671;47.936;8.716;2023-12-20T12:17:39;2.10;;;0.73;;
11228;SDS011;5671;47.936;8.716;2023-12-20T12:20:06;1.33;;;0.90;;
11228;SDS011;5671;47.936;8.716;2023-12-20T12:22:34;0.50;;;0.50;;
11228;SDS011;5671;47.936;8.716;2023-12-20T12:25:10;0.70;;;0.70;;
11228;SDS011;5671;47.936;8.716;2023-12-20T12:27:39;0.80;;;0.80;;
11228;SDS011;5671;47.936;8.716;2023-12-20T12:30:07;1.07;;;1.00;;
11228;SDS011;5671;47.936;8.716;2023-12-20T12:32:36;0.63;;;0.63;;
11228;SDS011;5671;47.936;8.716;2023-12-20T12:35:03;0.60;;;0.57;;
11228;SDS011;5671;47.936;8.716;2023-12-20T12:37:31;0.80;;;0.80;;
11228;SDS011;5671;47.936;8.716;2023-12-20T12:40:00;1.20;;;1.10;;
11228;SDS011;5671;47.936;8.716;2023-12-20T12:42:28;1.30;;;1.20;;
11228;SDS011;5671;47.936;8.716;2023-12-20T12:44:55;0.80;;;0.80;;
11228;SDS011;5671;47.936;8.716;2023-12-20T12:47:22;0.60;;;0.60;;
11228;SDS011;5671;47.936;8.716;2023-12-20T12:49:49;2.13;;;0.90;;
11228;SDS011;5671;47.936;8.716;2023-12-20T12:52:17;1.37;;;0.70;;
11228;SDS011;5671;47.936;8.716;2023-12-20T12:54:44;1.03;;;0.77;;
11228;SDS011;5671;47.936;8.716;2023-12-20T12:57:12;1.40;;;0.70;;
11228;SDS011;5671;47.936;8.716;2023-12-20T12:59:41;1.87;;;1.03;;
11228;SDS011;5671;47.936;8.716;2023-12-20T13:02:09;2.27;;;0.80;;
11228;SDS011;5671;47.936;8.716;2023-12-20T13:04:35;1.87;;;0.90;;
11228;SDS011;5671;47.936;8.716;2023-12-20T13:07:02;1.40;;;0.97;;
11228;SDS011;5671;47.936;8.716;2023-12-20T13:09:29;1.80;;;0.87;;
11228;SDS011;5671;47.936;8.716;2023-12-20T13:11:57;1.10;;;1.07;;
11228;SDS011;5671;47.936;8.716;2023-12-20T13:14:24;0.83;;;0.70;;
11228;SDS011;5671;47.936;8.716;2023-12-20T13:16:52;1.27;;;1.17;;
11228;SDS011;5671;47.936;8.716;2023-12-20T13:19:19;3.27;;;0.90;;
11228;SDS011;5671;47.936;8.716;2023-12-20T13:21:46;1.23;;;0.97;;
11228;SDS011;5671;47.936;8.716;2023-12-20T13:24:13;1.63;;;1.20;;
11228;SDS011;5671;47.936;8.716;2023-12-20T13:26:40;2.07;;;1.00;;
11228;SDS011;5671;47.936;8.716;2023-12-20T13:29:07;1.47;;;1.10;;
11228;SDS011;5671;47.936;8.716;2023-12-20T13:31:34;1.07;;;0.87;;
11228;SDS011;5671;47.936;8.716;2023-12-20T13:34:03;1.10;;;1.00;;
11228;SDS011;5671;47.936;8.716;2023-12-20T13:36:30;0.70;;;0.70;;
11228;SDS011;5671;47.936;8.716;2023-12-20T13:38:57;2.43;;;1.27;;
11228;SDS011;5671;47.936;8.716;2023-12-20T13:41:24;2.47;;;1.20;;
11228;SDS011;5671;47.936;8.716;2023-12-20T13:43:51;2.77;;;1.57;;
11228;SDS011;5671;47.936;8.716;2023-12-20T13:46:17;2.57;;;1.00;;
11228;SDS011;5671;47.936;8.716;2023-12-20T13:48:44;2.40;;;1.00;;
11228;SDS011;5671;47.936;8.716;2023-12-20T13:51:12;1.07;;;0.90;;
11228;SDS011;5671;47.936;8.716;2023-12-20T13:53:39;4.33;;;2.30;;
11228;SDS011;5671;47.936;8.716;2023-12-20T13:56:06;4.77;;;1.43;;
11228;SDS011;5671;47.936;8.716;2023-12-20T13:58:33;2.13;;;1.80;;
11228;SDS011;5671;47.936;8.716;2023-12-20T14:01:00;2.27;;;1.10;;
11228;SDS011;5671;47.936;8.716;2023-12-20T14:03:27;3.53;;;1.50;;
11228;SDS011;5671;47.936;8.716;2023-12-20T14:05:54;2.27;;;1.30;;
11228;SDS011;5671;47.936;8.716;2023-12-20T14:08:22;3.60;;;1.50;;
11228;SDS011;5671;47.936;8.716;2023-12-20T14:10:49;2.57;;;1.00;;
11228;SDS011;5671;47.936;8.716;2023-12-20T14:13:16;1.60;;;1.20;;
11228;SDS011;5671;47.936;8.716;2023-12-20T14:15:43;5.13;;;1.40;;
11228;SDS011;5671;47.936;8.716;2023-12-20T14:18:09;2.97;;;1.30;;
11228;SDS011;5671;47.936;8.716;2023-12-20T14:20:37;3.47;;;1.30;;
11228;SDS011;5671;47.936;8.716;2023-12-20T14:23:04;4.87;;;1.67;;
11228;SDS011;5671;47.936;8.716;2023-12-20T14:25:33;2.60;;;1.40;;
11228;SDS011;5671;47.936;8.716;2023-12-20T14:28:02;6.10;;;3.30;;
11228;SDS011;5671;47.936;8.716;2023-12-20T14:30:29;7.63;;;4.17;;
11228;SDS011;5671;47.936;8.716;2023-12-20T14:32:56;3.60;;;1.70;;
11228;SDS011;5671;47.936;8.716;2023-12-20T14:35:23;4.13;;;1.93;;
11228;SDS011;5671;47.936;8.716;2023-12-20T14:37:50;7.90;;;3.90;;
11228;SDS011;5671;47.936;8.716;2023-12-20T14:40:18;4.20;;;2.50;;
11228;SDS011;5671;47.936;8.716;2023-12-20T14:42:46;4.17;;;1.70;;
11228;SDS011;5671;47.936;8.716;2023-12-20T14:45:14;2.70;;;1.30;;
11228;SDS011;5671;47.936;8.716;2023-12-20T14:47:41;3.90;;;1.40;;
11228;SDS011;5671;47.936;8.716;2023-12-20T14:50:08;2.10;;;1.67;;
11228;SDS011;5671;47.936;8.716;2023-12-20T14:52:36;2.63;;;1.40;;
11228;SDS011;5671;47.936;8.716;2023-12-20T14:55:04;6.90;;;1.83;;
11228;SDS011;5671;47.936;8.716;2023-12-20T14:57:33;2.77;;;1.40;;
11228;SDS011;5671;47.936;8.716;2023-12-20T15:00:01;2.90;;;1.40;;
11228;SDS011;5671;47.936;8.716;2023-12-20T15:02:28;4.30;;;1.70;;
11228;SDS011;5671;47.936;8.716;2023-12-20T15:04:56;2.30;;;1.50;;
11228;SDS011;5671;47.936;8.716;2023-12-20T15:07:23;3.83;;;1.80;;
11228;SDS011;5671;47.936;8.716;2023-12-20T15:09:49;5.57;;;1.57;;
11228;SDS011;5671;47.936;8.716;2023-12-20T15:12:16;6.33;;;1.97;;
11228;SDS011;5671;47.936;8.716;2023-12-20T15:14:43;4.60;;;1.63;;
11228;SDS011;5671;47.936;8.716;2023-12-20T15:17:11;3.63;;;1.97;;
11228;SDS011;5671;47.936;8.716;2023-12-20T15:19:39;4.53;;;1.70;;
11228;SDS011;5671;47.936;8.716;2023-12-20T15:22:07;4.00;;;1.80;;
11228;SDS011;5671;47.936;8.716;2023-12-20T15:24:36;3.77;;;2.20;;
11228;SDS011;5671;47.936;8.716;2023-12-20T15:27:05;6.27;;;2.50;;
11228;SDS011;5671;47.936;8.716;2023-12-20T15:29:32;6.27;;;4.03;;
11228;SDS011;5671;47.936;8.716;2023-12-20T15:31:59;6.77;;;3.80;;
11228;SDS011;5671;47.936;8.716;2023-12-20T15:34:27;5.77;;;2.50;;
11228;SDS011;5671;47.936;8.716;2023-12-20T15:36:54;3.33;;;1.63;;
11228;SDS011;5671;47.936;8.716;2023-12-20T15:39:21;5.13;;;2.23;;